createdAt,value
2022-08-20T00:01:04.669Z,100951.34
2022-08-20T00:03:38.544Z,100983.78
2022-08-20T00:06:13.120Z,100950.56
2022-08-20T00:08:40.877Z,100990.03
2022-08-20T00:11:11.216Z,100974.22
2022-08-20T00:13:46.914Z,100969.13
2022-08-20T00:16:23.392Z,100925.25
2022-08-20T00:18:51.469Z,100976.06
2022-08-20T00:21:20.033Z,100951.53
2022-08-20T00:23:50.318Z,100977.91
2022-08-20T00:26:18.418Z,100992.09
2022-08-20T00:28:45.912Z,100913.06
2022-08-20T00:31:17.170Z,101013.13
2022-08-20T00:33:44.904Z,100947.28
2022-08-20T00:36:12.416Z,100999.09
2022-08-20T00:38:42.266Z,100969.28
2022-08-20T00:41:12.561Z,101000.94
2022-08-20T00:43:52.170Z,100989.53
2022-08-20T00:46:21.254Z,101002.69
2022-08-20T00:48:52.066Z,101003.59
2022-08-20T00:51:33.826Z,100999.19
2022-08-20T00:54:10.917Z,100975.47
2022-08-20T00:56:39.026Z,101004.50
2022-08-20T00:59:11.393Z,101000.09
2022-08-20T01:01:54.836Z,101004.50
2022-08-20T01:04:27.408Z,101011.50
2022-08-20T01:06:55.442Z,101019.44
2022-08-20T01:09:49.820Z,101023.81
2022-08-20T01:12:10.835Z,101014.19
2022-08-20T01:14:37.934Z,101007.16
2022-08-20T01:17:08.308Z,101009.78
2022-08-20T01:19:43.688Z,100966.75
2022-08-20T01:22:31.986Z,100995.75
2022-08-20T01:25:08.042Z,101011.59
2022-08-20T01:27:35.430Z,100985.25
2022-08-20T01:30:11.121Z,101001.94
2022-08-20T01:32:38.098Z,101014.25
2022-08-20T01:35:05.755Z,100965.09
2022-08-20T01:37:32.946Z,101020.41
2022-08-20T01:40:00.728Z,101030.97
2022-08-20T01:42:37.528Z,100965.13
2022-08-20T01:45:21.424Z,101018.69
2022-08-20T01:47:54.000Z,101030.13
2022-08-20T01:50:27.812Z,101008.16
2022-08-20T01:53:09.997Z,101014.31
2022-08-20T01:55:37.749Z,101008.16
2022-08-20T01:58:04.844Z,101023.97
2022-08-20T02:00:32.632Z,101018.69
2022-08-20T02:02:59.628Z,101005.53
2022-08-20T02:05:30.587Z,100968.63
2022-08-20T02:07:57.865Z,101009.91
2022-08-20T02:10:25.050Z,100934.38
2022-08-20T02:12:53.097Z,101009.00
2022-08-20T02:15:43.078Z,101009.00
2022-08-20T02:18:14.494Z,101021.31
2022-08-20T02:20:43.514Z,101030.06
2022-08-20T02:23:12.247Z,101018.69
2022-08-20T02:25:41.325Z,101019.59
2022-08-20T02:28:12.109Z,101018.69
2022-08-20T02:30:43.921Z,101016.03
2022-08-20T02:33:13.694Z,101030.13
2022-08-20T02:35:42.894Z,100978.28
2022-08-20T02:38:11.586Z,101024.84
2022-08-20T02:40:39.958Z,101028.31
2022-08-20T02:43:07.599Z,101029.25
2022-08-20T02:45:44.236Z,101026.63
2022-08-20T02:48:20.772Z,101025.72
2022-08-20T02:50:57.616Z,101038.91
2022-08-20T02:53:29.451Z,100986.16
2022-08-20T02:55:57.328Z,100980.91
2022-08-20T02:58:24.445Z,101030.13
2022-08-20T03:00:52.358Z,101017.81
2022-08-20T03:03:24.173Z,101033.66
2022-08-20T03:05:56.211Z,101043.28
2022-08-20T03:08:25.101Z,101010.78
2022-08-20T03:10:56.041Z,101034.47
2022-08-20T03:13:39.567Z,101008.16
2022-08-20T03:16:13.136Z,101009.91
2022-08-20T03:18:55.941Z,101033.59
2022-08-20T03:21:22.983Z,101047.59
2022-08-20T03:23:49.866Z,101044.56
2022-08-20T03:26:17.590Z,101047.03
2022-08-20T03:28:44.855Z,101048.81
2022-08-20T03:31:18.225Z,101034.00
2022-08-20T03:33:52.794Z,101043.63
2022-08-20T03:36:27.859Z,101046.22
2022-08-20T03:38:58.367Z,101041.94
2022-08-20T03:41:25.965Z,101026.25
2022-08-20T03:43:53.181Z,101044.00
2022-08-20T03:46:33.736Z,101040.25
2022-08-20T03:49:00.959Z,101057.03
2022-08-20T03:51:30.627Z,101037.75
2022-08-20T03:53:58.600Z,101023.50
2022-08-20T03:56:33.755Z,101054.44
2022-08-20T03:59:00.959Z,101055.84
2022-08-20T04:01:45.504Z,101057.88
2022-08-20T04:04:15.208Z,101015.91
2022-08-20T04:06:43.279Z,101052.75
2022-08-20T04:09:18.942Z,101040.50
2022-08-20T04:12:02.156Z,101035.19
2022-08-20T04:14:30.085Z,101045.56
2022-08-20T04:16:57.632Z,101049.09
2022-08-20T04:19:31.270Z,101043.97
2022-08-20T04:22:04.220Z,101049.47
2022-08-20T04:24:32.754Z,101044.28
2022-08-20T04:27:21.287Z,101003.31
2022-08-20T04:29:48.381Z,101037.59
2022-08-20T04:32:18.395Z,101045.97
2022-08-20T04:34:53.328Z,101061.53
2022-08-20T04:37:29.822Z,101013.16
2022-08-20T04:40:15.587Z,101060.19
2022-08-20T04:42:45.177Z,101034.75
2022-08-20T04:45:13.457Z,101055.75
2022-08-20T04:47:40.472Z,101055.72
2022-08-20T04:50:16.655Z,101059.44
2022-08-20T04:53:35.951Z,101048.84
2022-08-20T04:56:09.794Z,101020.94
2022-08-20T04:58:42.541Z,101029.16
2022-08-20T05:01:15.136Z,101043.06
2022-08-20T05:03:46.367Z,101015.00
2022-08-20T05:06:38.613Z,101005.69
2022-08-20T05:09:05.786Z,101057.13
2022-08-20T05:11:36.546Z,101070.25
2022-08-20T05:14:09.310Z,101061.59
2022-08-20T05:16:39.126Z,101041.59
2022-08-20T05:19:12.457Z,101060.19
2022-08-20T05:21:42.960Z,101062.25
2022-08-20T05:24:11.391Z,101028.38
2022-08-20T05:26:38.696Z,101031.19
2022-08-20T05:29:07.094Z,101052.31
2022-08-20T05:31:35.604Z,101061.09
2022-08-20T05:34:11.539Z,101080.53
2022-08-20T05:36:48.229Z,101080.75
2022-08-20T05:39:18.418Z,101074.75
2022-08-20T05:41:45.502Z,101066.16
2022-08-20T05:44:14.276Z,101069.53
2022-08-20T05:46:48.479Z,101065.16
2022-08-20T05:49:20.145Z,101076.53
2022-08-20T05:51:48.876Z,101071.38
2022-08-20T05:54:15.903Z,101097.75
2022-08-20T05:56:43.662Z,101079.09
2022-08-20T05:59:11.020Z,101079.00
2022-08-20T06:01:45.600Z,101065.84
2022-08-20T06:04:32.214Z,101064.97
2022-08-20T06:07:06.059Z,101071.94
2022-08-20T06:09:35.223Z,101073.78
2022-08-20T06:12:06.144Z,101032.56
2022-08-20T06:14:33.836Z,101029.63
2022-08-20T06:17:13.753Z,101063.00
2022-08-20T06:19:47.466Z,101009.59
2022-08-20T06:22:21.019Z,101061.03
2022-08-20T06:24:55.113Z,101061.03
2022-08-20T06:27:22.540Z,101029.38
2022-08-20T06:29:51.122Z,101033.59
2022-08-20T06:32:19.844Z,101018.72
2022-08-20T06:34:56.301Z,101039.13
2022-08-20T06:37:31.593Z,101051.34
2022-08-20T06:40:07.173Z,101052.22
2022-08-20T06:42:34.686Z,101056.47
2022-08-20T06:45:05.051Z,101036.94
2022-08-20T06:47:33.578Z,101057.88
2022-08-20T06:50:07.864Z,101042.75
2022-08-20T06:52:52.811Z,101019.72
2022-08-20T06:55:21.138Z,101034.56
2022-08-20T06:57:48.499Z,101023.91
2022-08-20T07:00:19.561Z,101045.63
2022-08-20T07:02:48.195Z,101023.22
2022-08-20T07:05:16.389Z,101027.47
2022-08-20T07:07:49.740Z,101039.00
2022-08-20T07:10:18.854Z,101030.22
2022-08-20T07:12:51.158Z,101028.41
2022-08-20T07:15:21.702Z,101024.75
2022-08-20T07:17:58.768Z,101001.03
2022-08-20T07:20:29.017Z,101014.63
2022-08-20T07:22:56.364Z,101031.16
2022-08-20T07:25:23.946Z,101009.81
2022-08-20T07:27:51.864Z,100974.66
2022-08-20T07:30:56.732Z,100975.00
2022-08-20T07:33:26.519Z,101002.84
2022-08-20T07:35:57.188Z,101011.03
2022-08-20T07:38:26.212Z,101006.97
2022-08-20T07:40:59.003Z,100996.31
2022-08-20T07:43:30.094Z,100998.66
2022-08-20T07:46:00.895Z,101004.38
2022-08-20T07:48:32.142Z,101011.47
2022-08-20T07:51:03.827Z,101013.03
2022-08-20T07:53:35.789Z,101007.22
2022-08-20T07:56:11.346Z,101008.41
2022-08-20T07:58:42.820Z,100963.97
2022-08-20T08:01:11.866Z,100994.09
2022-08-20T08:03:40.499Z,101017.53
2022-08-20T08:06:28.424Z,101018.75
2022-08-20T08:09:02.038Z,101015.28
2022-08-20T08:11:29.931Z,101021.41
2022-08-20T08:13:59.430Z,100997.78
2022-08-20T08:16:28.679Z,101019.66
2022-08-20T08:18:56.720Z,101032.75
2022-08-20T08:21:25.630Z,101031.94
2022-08-20T08:23:53.582Z,101031.38
2022-08-20T08:26:21.835Z,101042.00
2022-08-20T08:28:48.832Z,101025.25
2022-08-20T08:31:16.143Z,101043.53
2022-08-20T08:33:43.417Z,101048.41
2022-08-20T08:36:15.774Z,101026.53
2022-08-20T08:38:45.653Z,101048.56
2022-08-20T08:41:24.906Z,101046.78
2022-08-20T08:43:55.176Z,101045.94
2022-08-20T08:46:28.076Z,101051.50
2022-08-20T08:48:58.556Z,101042.94
2022-08-20T08:51:35.313Z,101011.75
2022-08-20T08:54:06.973Z,101006.69
2022-08-20T08:56:35.549Z,101061.25
2022-08-20T08:59:07.836Z,101057.78
2022-08-20T09:01:54.581Z,101048.88
2022-08-20T09:04:33.189Z,101056.91
2022-08-20T09:07:03.006Z,101040.06
2022-08-20T09:09:33.094Z,101067.38
2022-08-20T09:12:06.803Z,101058.66
2022-08-20T09:14:34.864Z,101045.56
2022-08-20T09:17:01.918Z,101062.13
2022-08-20T09:19:28.877Z,101063.31
2022-08-20T09:21:56.166Z,101060.66
2022-08-20T09:24:23.207Z,101061.38
2022-08-20T09:26:50.317Z,101062.34
2022-08-20T09:29:17.860Z,101073.03
2022-08-20T09:31:45.234Z,101031.81
2022-08-20T09:34:14.519Z,101045.69
2022-08-20T09:36:41.795Z,101029.97
2022-08-20T09:39:10.178Z,101045.47
2022-08-20T09:41:37.277Z,101049.81
2022-08-20T09:44:04.318Z,101036.66
2022-08-20T09:46:31.628Z,101033.97
2022-08-20T09:48:58.519Z,101038.03
2022-08-20T09:51:25.513Z,101027.56
2022-08-20T09:53:53.063Z,101007.19
2022-08-20T09:56:20.242Z,101016.13
2022-08-20T09:58:53.480Z,101013.66
2022-08-20T10:01:22.505Z,101011.72
2022-08-20T10:03:50.427Z,101021.41
2022-08-20T10:06:20.672Z,101001.25
2022-08-20T10:08:49.036Z,101014.09
2022-08-20T10:11:18.038Z,101030.06
2022-08-20T10:13:45.606Z,101046.16
2022-08-20T10:16:13.465Z,100976.97
2022-08-20T10:18:40.688Z,101015.53
2022-08-20T10:21:12.386Z,101031.31
2022-08-20T10:23:39.473Z,101034.94
2022-08-20T10:26:11.717Z,101024.34
2022-08-20T10:28:39.336Z,101020.19
2022-08-20T10:31:08.302Z,101023.22
2022-08-20T10:33:36.852Z,101023.19
2022-08-20T10:36:22.014Z,101019.72
2022-08-20T10:38:49.423Z,101031.16
2022-08-20T10:41:16.454Z,101031.19
2022-08-20T10:43:43.327Z,101028.66
2022-08-20T10:46:10.561Z,101009.06
2022-08-20T10:48:37.925Z,100977.31
2022-08-20T10:51:05.327Z,100996.31
2022-08-20T10:53:32.845Z,100992.56
2022-08-20T10:56:00.351Z,100962.00
2022-08-20T10:58:39.399Z,101003.75
2022-08-20T11:01:07.313Z,100987.84
2022-08-20T11:03:35.288Z,101004.34
2022-08-20T11:06:03.397Z,101002.09
2022-08-20T11:08:33.510Z,100982.34
2022-08-20T11:11:06.270Z,100992.28
2022-08-20T11:13:38.168Z,100955.50
2022-08-20T11:16:05.774Z,100974.13
2022-08-20T11:18:33.341Z,100976.66
2022-08-20T11:21:01.532Z,100995.09
2022-08-20T11:23:28.542Z,100984.34
2022-08-20T11:25:58.346Z,100973.38
2022-08-20T11:28:31.392Z,100944.78
2022-08-20T11:31:01.089Z,100964.13
2022-08-20T11:33:28.618Z,100979.81
2022-08-20T11:35:55.677Z,100929.13
2022-08-20T11:38:22.686Z,100977.16
2022-08-20T11:40:49.866Z,100942.19
2022-08-20T11:43:17.765Z,100971.13
2022-08-20T11:45:51.348Z,100974.69
2022-08-20T11:48:19.391Z,100969.63
2022-08-20T11:50:47.498Z,100974.59
2022-08-20T11:53:14.969Z,100976.47
2022-08-20T11:55:43.498Z,100953.63
2022-08-20T11:58:10.915Z,100974.63
2022-08-20T12:00:38.257Z,100950.00
2022-08-20T12:03:09.405Z,100955.84
2022-08-20T12:05:38.999Z,100910.91
2022-08-20T12:08:06.471Z,100958.81
2022-08-20T12:10:33.973Z,100945.56
2022-08-20T12:13:04.546Z,100949.16
2022-08-20T12:15:34.990Z,100910.56
2022-08-20T12:18:06.771Z,100954.44
2022-08-20T12:20:34.617Z,100940.28
2022-08-20T12:23:05.499Z,100946.44
2022-08-20T12:25:33.089Z,100943.72
2022-08-20T12:28:01.147Z,100950.88
2022-08-20T12:30:29.494Z,100909.69
2022-08-20T12:32:56.636Z,100935.75
2022-08-20T12:35:23.638Z,100936.75
2022-08-20T12:37:51.472Z,100915.66
2022-08-20T12:40:32.933Z,100905.38
2022-08-20T12:43:04.726Z,100896.72
2022-08-20T12:45:33.341Z,100902.84
2022-08-20T12:48:04.680Z,100898.50
2022-08-20T12:50:32.675Z,100902.84
2022-08-20T12:53:00.916Z,100879.00
2022-08-20T12:55:28.755Z,100897.16
2022-08-20T12:57:59.646Z,100900.59
2022-08-20T13:00:29.321Z,100866.66
2022-08-20T13:03:09.893Z,100891.06
2022-08-20T13:05:46.960Z,100895.66
2022-08-20T13:08:29.525Z,100885.09
2022-08-20T13:11:03.531Z,100885.19
2022-08-20T13:13:30.830Z,100893.19
2022-08-20T13:15:57.783Z,100896.78
2022-08-20T13:18:25.035Z,100886.72
2022-08-20T13:20:51.994Z,100885.75
2022-08-20T13:23:18.995Z,100888.41
2022-08-20T13:25:46.265Z,100848.81
2022-08-20T13:28:13.195Z,100851.16
2022-08-20T13:30:41.496Z,100862.28
2022-08-20T13:33:08.833Z,100846.41
2022-08-20T13:35:35.804Z,100810.34
2022-08-20T13:38:02.852Z,100841.06
2022-08-20T13:40:30.112Z,100861.00
2022-08-20T13:42:57.249Z,100880.84
2022-08-20T13:45:24.340Z,100852.66
2022-08-20T13:47:55.350Z,100876.16
2022-08-20T13:50:24.506Z,100863.69
2022-08-20T13:52:51.849Z,100858.19
2022-08-20T13:55:21.598Z,100855.81
2022-08-20T13:57:49.106Z,100852.88
2022-08-20T14:00:31.293Z,100856.16
2022-08-20T14:03:04.473Z,100849.00
2022-08-20T14:05:32.142Z,100861.50
2022-08-20T14:08:28.625Z,100834.63
2022-08-20T14:10:55.981Z,100855.75
2022-08-20T14:13:26.292Z,100848.72
2022-08-20T14:15:54.412Z,100833.06
2022-08-20T14:18:21.724Z,100817.41
2022-08-20T14:20:49.320Z,100827.97
2022-08-20T14:23:16.592Z,100826.91
2022-08-20T14:25:48.458Z,100851.50
2022-08-20T14:28:22.849Z,100847.34
2022-08-20T14:30:53.279Z,100827.19
2022-08-20T14:33:22.149Z,100832.66
2022-08-20T14:35:49.242Z,100836.47
2022-08-20T14:38:16.142Z,100782.31
2022-08-20T14:40:43.122Z,100799.53
2022-08-20T14:43:10.061Z,100819.66
2022-08-20T14:45:37.224Z,100810.09
2022-08-20T14:48:07.647Z,100821.38
2022-08-20T14:50:35.954Z,100819.56
2022-08-20T14:53:03.242Z,100816.97
2022-08-20T14:55:33.735Z,100799.75
2022-08-20T14:58:01.040Z,100818.09
2022-08-20T15:00:30.534Z,100824.38
2022-08-20T15:02:57.716Z,100818.22
2022-08-20T15:05:25.337Z,100826.28
2022-08-20T15:07:53.927Z,100811.34
2022-08-20T15:10:27.167Z,100808.81
2022-08-20T15:12:54.451Z,100816.75
2022-08-20T15:15:22.178Z,100812.41
2022-08-20T15:17:52.919Z,100837.41
2022-08-20T15:20:22.255Z,100808.28
2022-08-20T15:22:49.929Z,100810.13
2022-08-20T15:25:19.358Z,100795.25
2022-08-20T15:27:46.983Z,100795.47
2022-08-20T15:30:19.165Z,100788.38
2022-08-20T15:32:50.277Z,100799.13
2022-08-20T15:35:20.300Z,100795.78
2022-08-20T15:37:49.324Z,100805.59
2022-08-20T15:40:25.889Z,100783.75
2022-08-20T15:42:56.627Z,100780.59
2022-08-20T15:45:23.896Z,100762.19
2022-08-20T15:48:03.086Z,100798.06
2022-08-20T15:50:38.162Z,100794.69
2022-08-20T15:53:32.574Z,100802.91
2022-08-20T15:56:28.445Z,100788.13
2022-08-20T15:58:59.036Z,100797.69
2022-08-20T16:01:36.865Z,100802.13
2022-08-20T16:04:27.866Z,100813.81
2022-08-20T16:07:00.802Z,100811.22
2022-08-20T16:09:46.603Z,100777.22
2022-08-20T16:12:23.912Z,100762.28
2022-08-20T16:14:57.450Z,100803.41
2022-08-20T16:17:37.402Z,100811.47
2022-08-20T16:20:13.156Z,100805.38
2022-08-20T16:22:46.295Z,100820.53
2022-08-20T16:25:15.238Z,100809.09
2022-08-20T16:27:51.153Z,100811.91
2022-08-20T16:30:43.767Z,100807.72
2022-08-20T16:33:19.351Z,100809.53
2022-08-20T16:35:54.795Z,100807.84
2022-08-20T16:38:43.216Z,100808.94
2022-08-20T16:41:18.109Z,100809.84
2022-08-20T16:44:06.737Z,100810.03
2022-08-20T16:46:38.305Z,100790.91
2022-08-20T16:49:13.501Z,100832.16
2022-08-20T16:51:42.511Z,100804.81
2022-08-20T16:54:11.457Z,100825.22
2022-08-20T16:56:43.082Z,100808.78
2022-08-20T16:59:24.592Z,100770.28
2022-08-20T17:02:11.725Z,100825.47
2022-08-20T17:04:58.679Z,100822.91
2022-08-20T17:07:40.412Z,100844.00
2022-08-20T17:10:17.021Z,100849.41
2022-08-20T17:12:44.772Z,100834.31
2022-08-20T17:15:25.741Z,100836.13
2022-08-20T17:17:55.813Z,100845.81
2022-08-20T17:20:28.171Z,100819.47
2022-08-20T17:23:11.122Z,100850.19
2022-08-20T17:25:38.598Z,100834.19
2022-08-20T17:28:20.900Z,100792.28
2022-08-20T17:30:48.302Z,100837.78
2022-08-20T17:33:21.384Z,100832.41
2022-08-20T17:35:55.456Z,100837.72
2022-08-20T17:38:38.045Z,100840.47
2022-08-20T17:41:17.220Z,100824.78
2022-08-20T17:43:45.336Z,100820.63
2022-08-20T17:46:16.791Z,100819.63
2022-08-20T17:48:47.086Z,100824.97
2022-08-20T17:51:18.848Z,100830.34
2022-08-20T17:53:51.982Z,100819.81
2022-08-20T17:56:29.503Z,100806.78
2022-08-20T17:59:06.173Z,100830.56
2022-08-20T18:01:38.213Z,100814.72
2022-08-20T18:04:05.527Z,100830.63
2022-08-20T18:07:00.941Z,100821.97
2022-08-20T18:09:54.930Z,100823.69
2022-08-20T18:12:41.360Z,100827.31
2022-08-20T18:15:14.043Z,100814.03
2022-08-20T18:18:09.658Z,100816.78
2022-08-20T18:20:49.981Z,100818.47
2022-08-20T18:23:49.663Z,100811.34
2022-08-20T18:26:39.903Z,100784.34
2022-08-20T18:29:18.648Z,100823.69
2022-08-20T18:31:48.818Z,100784.34
2022-08-20T18:34:23.077Z,100817.53
2022-08-20T18:37:01.757Z,100818.47
2022-08-20T18:39:35.949Z,100800.88
2022-08-20T18:42:22.234Z,100819.19
2022-08-20T18:44:53.382Z,100826.25
2022-08-20T18:47:33.446Z,100828.06
2022-08-20T18:50:16.839Z,100822.81
2022-08-20T18:52:50.651Z,100822.81
2022-08-20T18:55:32.750Z,100820.28
2022-08-20T18:58:02.525Z,100825.63
2022-08-20T19:00:49.834Z,100821.28
2022-08-20T19:03:35.844Z,100825.72
2022-08-20T19:06:54.314Z,100811.78
2022-08-20T19:09:49.692Z,100774.16
2022-08-20T19:12:32.146Z,100818.66
2022-08-20T19:15:16.832Z,100803.97
2022-08-20T19:17:44.125Z,100827.41
2022-08-20T19:20:19.549Z,100824.75
2022-08-20T19:22:50.291Z,100842.38
2022-08-20T19:26:02.061Z,100830.06
2022-08-20T19:28:35.256Z,100804.81
2022-08-20T19:31:21.147Z,100802.13
2022-08-20T19:33:51.687Z,100831.78
2022-08-20T19:36:28.455Z,100829.31
2022-08-20T19:38:59.992Z,100833.78
2022-08-20T19:41:41.667Z,100838.22
2022-08-20T19:44:10.925Z,100845.41
2022-08-20T19:46:43.741Z,100828.72
2022-08-20T19:49:36.001Z,100834.94
2022-08-20T19:52:28.181Z,100828.81
2022-08-20T19:55:02.986Z,100837.81
2022-08-20T19:57:31.364Z,100834.28
2022-08-20T20:00:06.588Z,100827.34
2022-08-20T20:02:34.376Z,100831.84
2022-08-20T20:05:09.773Z,100816.16
2022-08-20T20:07:53.604Z,100843.50
2022-08-20T20:10:36.791Z,100813.91
2022-08-20T20:13:13.198Z,100842.78
2022-08-20T20:15:41.194Z,100842.84
2022-08-20T20:18:09.272Z,100844.66
2022-08-20T20:20:50.202Z,100850.91
2022-08-20T20:23:28.383Z,100842.19
2022-08-20T20:26:17.434Z,100830.94
2022-08-20T20:28:49.679Z,100837.09
2022-08-20T20:31:29.640Z,100854.75
2022-08-20T20:33:59.985Z,100849.56
2022-08-20T20:36:36.665Z,100846.13
2022-08-20T20:39:13.760Z,100841.81
2022-08-20T20:41:54.112Z,100836.56
2022-08-20T20:44:25.623Z,100855.88
2022-08-20T20:46:59.098Z,100816.53
2022-08-20T20:49:30.037Z,100854.19
2022-08-20T20:52:15.074Z,100848.97
2022-08-20T20:54:45.647Z,100850.84
2022-08-20T20:57:15.720Z,100857.00
2022-08-20T20:59:49.871Z,100861.44
2022-08-20T21:02:26.253Z,100824.75
2022-08-20T21:04:53.435Z,100830.00
2022-08-20T21:07:22.786Z,100851.16
2022-08-20T21:09:51.990Z,100827.47
2022-08-20T21:12:21.003Z,100830.19
2022-08-20T21:14:49.044Z,100824.19
2022-08-20T21:17:22.749Z,100840.78
2022-08-20T21:19:51.521Z,100844.34
2022-08-20T21:22:19.930Z,100824.28
2022-08-20T21:24:51.326Z,100826.94
2022-08-20T21:27:25.614Z,100834.84
2022-08-20T21:29:53.365Z,100788.50
2022-08-20T21:32:21.392Z,100837.53
2022-08-20T21:34:49.701Z,100792.94
2022-08-20T21:37:17.809Z,100828.84
2022-08-20T21:39:44.932Z,100814.88
2022-08-20T21:42:28.086Z,100841.16
2022-08-20T21:44:58.093Z,100841.22
2022-08-20T21:47:26.084Z,100842.09
2022-08-20T21:49:53.078Z,100843.00
2022-08-20T21:52:20.252Z,100829.94
2022-08-20T21:54:47.306Z,100842.22
2022-08-20T21:57:19.465Z,100843.16
2022-08-20T21:59:47.614Z,100840.59
2022-08-20T22:02:16.235Z,100841.50
2022-08-20T22:04:43.742Z,100834.56
2022-08-20T22:07:11.059Z,100847.72
2022-08-20T22:09:39.012Z,100842.47
2022-08-20T22:12:14.249Z,100847.78
2022-08-20T22:14:42.069Z,100812.75
2022-08-20T22:17:08.958Z,100831.19
2022-08-20T22:19:35.985Z,100845.25
2022-08-20T22:22:03.809Z,100826.81
2022-08-20T22:24:30.887Z,100820.75
2022-08-20T22:26:58.067Z,100839.13
2022-08-20T22:29:25.156Z,100809.44
2022-08-20T22:31:52.225Z,100835.78
2022-08-20T22:34:20.921Z,100813.91
2022-08-20T22:36:49.013Z,100847.22
2022-08-20T22:39:16.106Z,100844.63
2022-08-20T22:41:43.094Z,100812.25
2022-08-20T22:44:10.038Z,100844.69
2022-08-20T22:46:44.983Z,100842.09
2022-08-20T22:49:17.699Z,100843.88
2022-08-20T22:51:45.003Z,100834.22
2022-08-20T22:54:19.333Z,100835.19
2022-08-20T22:56:46.671Z,100820.34
2022-08-20T22:59:14.187Z,100808.94
2022-08-20T23:01:45.214Z,100797.50
2022-08-20T23:04:24.050Z,100847.53
2022-08-20T23:06:52.176Z,100852.81
2022-08-20T23:09:20.988Z,100837.94
2022-08-20T23:11:48.898Z,100830.00
2022-08-20T23:14:15.886Z,100809.91
2022-08-20T23:16:45.391Z,100830.97
2022-08-20T23:19:22.361Z,100838.91
2022-08-20T23:21:50.924Z,100842.38
2022-08-20T23:24:18.291Z,100838.03
2022-08-20T23:26:53.277Z,100819.72
2022-08-20T23:29:25.280Z,100838.88
2022-08-20T23:31:57.194Z,100844.97
2022-08-20T23:34:25.127Z,100827.47
2022-08-20T23:36:53.113Z,100804.75
2022-08-20T23:39:20.448Z,100852.09
2022-08-20T23:41:48.261Z,100836.34
2022-08-20T23:44:25.480Z,100846.88
2022-08-20T23:47:02.865Z,100832.00
2022-08-20T23:49:31.818Z,100838.09
2022-08-20T23:52:00.733Z,100835.50
2022-08-20T23:54:29.262Z,100833.78
2022-08-20T23:56:57.040Z,100827.63
2022-08-20T23:59:26.881Z,100826.75
